createdAt,value
2022-08-19T00:01:54.831Z,13.52
2022-08-19T00:03:59.670Z,13.85
2022-08-19T00:06:02.538Z,16.83
2022-08-19T00:08:05.406Z,18.50
2022-08-19T00:10:11.555Z,17.23
2022-08-19T00:12:15.027Z,16.90
2022-08-19T00:14:18.961Z,17.40
2022-08-19T00:16:22.783Z,16.15
2022-08-19T00:18:29.326Z,14.73
2022-08-19T00:20:32.207Z,18.42
2022-08-19T00:22:35.518Z,17.55
2022-08-19T00:24:39.327Z,16.08
2022-08-19T00:26:44.642Z,13.45
2022-08-19T00:28:47.545Z,13.75
2022-08-19T00:30:52.651Z,15.07
2022-08-19T00:32:55.905Z,14.23
2022-08-19T00:34:59.132Z,15.27
2022-08-19T00:37:02.069Z,15.30
2022-08-19T00:39:06.032Z,14.02
2022-08-19T00:41:09.687Z,13.93
2022-08-19T00:43:15.012Z,13.98
2022-08-19T00:45:26.418Z,15.15
2022-08-19T00:47:29.292Z,15.65
2022-08-19T00:49:37.038Z,15.27
2022-08-19T00:51:39.861Z,14.18
2022-08-19T00:53:43.121Z,15.52
2022-08-19T00:55:47.886Z,15.65
2022-08-19T00:57:59.259Z,13.57
2022-08-19T01:00:08.312Z,14.55
2022-08-19T01:02:12.334Z,14.15
2022-08-19T01:04:15.660Z,14.45
2022-08-19T01:06:20.795Z,14.02
2022-08-19T01:08:25.187Z,13.88
2022-08-19T01:10:36.082Z,18.50
2022-08-19T01:12:40.745Z,13.32
2022-08-19T01:14:43.706Z,17.10
2022-08-19T01:16:48.676Z,14.13
2022-08-19T01:18:52.542Z,14.45
2022-08-19T01:20:58.464Z,14.35
2022-08-19T01:23:03.129Z,17.50
2022-08-19T01:25:08.886Z,15.13
2022-08-19T01:27:18.048Z,14.65
2022-08-19T01:29:20.934Z,16.05
2022-08-19T01:31:27.901Z,13.80
2022-08-19T01:33:31.898Z,14.27
2022-08-19T01:35:37.002Z,14.75
2022-08-19T01:37:47.978Z,13.55
2022-08-19T01:39:52.642Z,16.00
2022-08-19T01:41:56.109Z,16.45
2022-08-19T01:44:13.918Z,14.33
2022-08-19T01:46:24.968Z,14.00
2022-08-19T01:48:30.241Z,15.98
2022-08-19T01:50:34.769Z,15.75
2022-08-19T01:52:38.487Z,14.25
2022-08-19T01:54:41.609Z,14.50
2022-08-19T01:56:45.966Z,17.75
2022-08-19T02:00:54.626Z,16.20
2022-08-19T02:02:57.647Z,15.30
2022-08-19T02:05:01.340Z,13.80
2022-08-19T02:07:04.386Z,14.07
2022-08-19T02:09:08.988Z,16.90
2022-08-19T02:11:21.469Z,18.52
2022-08-19T02:13:26.770Z,14.10
2022-08-19T02:15:29.645Z,15.50
2022-08-19T02:17:32.619Z,14.50
2022-08-19T02:19:35.634Z,14.45
2022-08-19T02:21:41.837Z,14.95
2022-08-19T02:23:44.976Z,15.40
2022-08-19T02:25:49.926Z,14.18
2022-08-19T02:27:52.787Z,14.90
2022-08-19T02:29:58.833Z,18.90
2022-08-19T02:32:01.695Z,17.30
2022-08-19T02:34:04.943Z,15.27
2022-08-19T02:36:09.587Z,16.05
2022-08-19T02:38:27.033Z,17.95
2022-08-19T02:40:30.619Z,13.68
2022-08-19T02:42:33.812Z,14.00
2022-08-19T02:44:36.634Z,14.57
2022-08-19T02:46:40.897Z,14.60
2022-08-19T02:48:44.482Z,16.10
2022-08-19T02:50:53.401Z,13.63
2022-08-19T02:52:56.615Z,14.60
2022-08-19T02:54:59.457Z,15.63
2022-08-19T02:57:02.426Z,18.27
2022-08-19T02:59:11.277Z,15.65
2022-08-19T03:01:22.392Z,14.57
2022-08-19T03:03:26.909Z,17.30
2022-08-19T03:05:48.078Z,15.93
2022-08-19T03:07:52.748Z,18.13
2022-08-19T03:09:55.588Z,15.60
2022-08-19T03:11:58.448Z,18.77
2022-08-19T03:14:02.105Z,17.17
2022-08-19T03:16:07.419Z,16.90
2022-08-19T03:18:10.367Z,17.55
2022-08-19T03:20:14.654Z,16.15
2022-08-19T03:22:17.476Z,16.25
2022-08-19T03:24:21.769Z,17.45
2022-08-19T03:26:24.687Z,18.55
2022-08-19T03:28:29.241Z,16.95
2022-08-19T03:30:32.518Z,19.67
2022-08-19T03:32:36.430Z,20.35
2022-08-19T03:34:48.294Z,18.73
2022-08-19T03:36:52.753Z,20.15
2022-08-19T03:41:07.256Z,20.05
2022-08-19T03:43:10.095Z,17.85
2022-08-19T03:45:12.944Z,18.15
2022-08-19T03:47:17.622Z,16.15
2022-08-19T03:49:27.089Z,15.35
2022-08-19T03:51:35.713Z,15.85
2022-08-19T03:53:40.352Z,17.42
2022-08-19T03:55:43.584Z,15.00
2022-08-19T03:57:48.594Z,17.05
2022-08-19T03:59:51.446Z,14.27
2022-08-19T04:01:54.939Z,18.33
2022-08-19T04:03:59.160Z,18.00
2022-08-19T04:06:11.990Z,14.23
2022-08-19T04:08:16.175Z,17.75
2022-08-19T04:10:20.667Z,16.75
2022-08-19T04:14:30.384Z,15.82
2022-08-19T04:16:35.064Z,14.23
2022-08-19T04:18:39.841Z,15.82
2022-08-19T04:22:47.053Z,15.40
2022-08-19T04:24:49.963Z,16.70
2022-08-19T04:26:54.572Z,17.30
2022-08-19T04:28:57.503Z,16.23
2022-08-19T04:31:00.327Z,15.32
2022-08-19T04:33:03.160Z,14.73
2022-08-19T04:35:17.000Z,16.00
2022-08-19T04:37:21.512Z,15.40
2022-08-19T04:39:48.076Z,13.93
2022-08-19T04:42:08.780Z,16.42
2022-08-19T04:44:14.048Z,15.60
2022-08-19T04:46:28.523Z,14.18
2022-08-19T04:48:43.421Z,15.02
2022-08-19T04:50:58.451Z,14.77
2022-08-19T04:53:01.365Z,16.65
2022-08-19T04:55:06.945Z,17.30
2022-08-19T04:57:10.990Z,15.93
2022-08-19T04:59:15.579Z,16.10
2022-08-19T05:01:21.592Z,14.25
2022-08-19T05:03:27.589Z,15.18
2022-08-19T05:05:33.493Z,17.67
2022-08-19T05:07:48.333Z,16.95
2022-08-19T05:09:58.226Z,17.10
2022-08-19T05:12:02.277Z,17.90
2022-08-19T05:14:05.120Z,17.73
2022-08-19T05:16:09.451Z,16.60
2022-08-19T05:18:30.260Z,17.30
2022-08-19T05:20:50.516Z,13.40
2022-08-19T05:22:56.670Z,14.82
2022-08-19T05:25:12.236Z,13.10
2022-08-19T05:27:18.042Z,11.90
2022-08-19T05:29:22.983Z,12.10
2022-08-19T05:31:27.353Z,13.25
2022-08-19T05:35:34.629Z,13.52
2022-08-19T05:37:37.756Z,11.25
2022-08-19T05:39:41.338Z,12.82
2022-08-19T05:41:44.963Z,14.57
2022-08-19T05:43:47.866Z,12.60
2022-08-19T05:45:51.598Z,12.88
2022-08-19T05:47:55.884Z,13.80
2022-08-19T05:49:58.713Z,10.50
2022-08-19T05:52:04.603Z,11.88
2022-08-19T05:54:08.114Z,12.05
2022-08-19T05:56:15.589Z,14.63
2022-08-19T05:58:18.505Z,12.85
2022-08-19T06:00:26.257Z,12.63
2022-08-19T06:02:31.571Z,12.63
2022-08-19T06:04:36.320Z,12.38
2022-08-19T06:06:39.314Z,13.55
2022-08-19T06:08:43.781Z,11.73
2022-08-19T06:12:49.539Z,12.65
2022-08-19T06:15:00.660Z,14.88
2022-08-19T06:17:07.123Z,11.07
2022-08-19T06:19:13.427Z,12.15
2022-08-19T06:21:17.737Z,11.50
2022-08-19T06:23:21.144Z,12.73
2022-08-19T06:25:30.468Z,11.98
2022-08-19T06:27:34.370Z,11.75
2022-08-19T06:29:37.853Z,10.63
2022-08-19T06:31:44.906Z,13.87
2022-08-19T06:33:48.987Z,11.88
2022-08-19T06:35:53.172Z,12.35
2022-08-19T06:37:57.761Z,12.90
2022-08-19T06:40:01.095Z,12.35
2022-08-19T06:42:09.705Z,10.25
2022-08-19T06:44:14.179Z,12.68
2022-08-19T06:46:19.751Z,11.75
2022-08-19T06:48:22.638Z,12.35
2022-08-19T06:50:29.131Z,13.18
2022-08-19T06:52:34.122Z,11.77
2022-08-19T06:54:55.324Z,10.00
2022-08-19T06:57:02.858Z,10.45
2022-08-19T06:59:07.988Z,9.50
2022-08-19T07:01:11.304Z,9.45
2022-08-19T07:03:14.485Z,8.52
2022-08-19T07:05:18.157Z,12.93
2022-08-19T07:07:23.651Z,12.95
2022-08-19T07:09:26.653Z,12.95
2022-08-19T07:11:31.818Z,12.90
2022-08-19T07:13:38.317Z,13.30
2022-08-19T07:15:41.256Z,12.27
2022-08-19T07:17:44.390Z,11.32
2022-08-19T07:19:47.739Z,10.30
2022-08-19T07:21:53.706Z,9.73
2022-08-19T07:23:57.214Z,9.80
2022-08-19T07:26:05.719Z,11.37
2022-08-19T07:28:15.796Z,11.32
2022-08-19T07:30:26.944Z,10.48
2022-08-19T07:32:31.239Z,11.55
2022-08-19T07:34:38.078Z,10.18
2022-08-19T07:36:44.385Z,10.70
2022-08-19T07:40:52.513Z,10.27
2022-08-19T07:42:55.333Z,9.70
2022-08-19T07:45:00.191Z,9.13
2022-08-19T07:47:04.157Z,10.63
2022-08-19T07:49:09.493Z,10.13
2022-08-19T07:51:14.367Z,9.70
2022-08-19T07:53:36.711Z,9.13
2022-08-19T07:55:43.975Z,7.50
2022-08-19T07:57:47.016Z,8.38
2022-08-19T07:59:50.027Z,8.88
2022-08-19T08:01:54.783Z,9.95
2022-08-19T08:04:17.222Z,8.60
2022-08-19T08:06:37.594Z,9.77
2022-08-19T08:08:58.153Z,10.90
2022-08-19T08:11:01.406Z,9.65
2022-08-19T08:13:09.202Z,9.13
2022-08-19T08:15:17.190Z,9.38
2022-08-19T08:17:42.403Z,8.80
2022-08-19T08:19:47.659Z,9.55
2022-08-19T08:21:56.431Z,9.18
2022-08-19T08:26:06.428Z,8.23
2022-08-19T08:28:09.955Z,7.88
2022-08-19T08:30:18.142Z,7.70
2022-08-19T08:32:22.925Z,8.98
2022-08-19T08:34:25.840Z,8.38
2022-08-19T08:36:29.270Z,7.18
2022-08-19T08:38:38.419Z,7.50
2022-08-19T08:40:47.280Z,8.23
2022-08-19T08:45:16.781Z,8.05
2022-08-19T08:47:22.663Z,8.30
2022-08-19T08:49:32.957Z,8.43
2022-08-19T08:53:51.329Z,8.45
2022-08-19T08:55:59.183Z,7.32
2022-08-19T08:58:06.803Z,6.93
2022-08-19T09:00:15.357Z,7.03
2022-08-19T09:02:18.976Z,10.10
2022-08-19T09:04:23.414Z,8.50
2022-08-19T09:06:37.774Z,9.98
2022-08-19T09:08:52.168Z,9.07
2022-08-19T09:10:59.731Z,6.40
2022-08-19T09:13:13.196Z,7.78
2022-08-19T09:15:33.587Z,9.30
2022-08-19T09:17:39.725Z,7.72
2022-08-19T09:19:52.885Z,8.25
2022-08-19T09:21:57.222Z,6.55
2022-08-19T09:26:03.477Z,7.72
2022-08-19T09:28:15.230Z,7.55
2022-08-19T09:30:28.269Z,7.78
2022-08-19T09:32:35.571Z,8.57
2022-08-19T09:34:39.509Z,8.52
2022-08-19T09:36:54.608Z,9.82
2022-08-19T09:39:00.940Z,9.40
2022-08-19T09:41:07.425Z,8.82
2022-08-19T09:43:13.272Z,7.75
2022-08-19T09:45:18.205Z,9.25
2022-08-19T09:47:21.059Z,9.13
2022-08-19T09:49:25.946Z,9.13
2022-08-19T09:51:30.410Z,8.68
2022-08-19T09:53:33.459Z,9.07
2022-08-19T09:55:44.116Z,10.52
2022-08-19T09:57:47.122Z,7.40
2022-08-19T09:59:50.064Z,8.70
2022-08-19T10:01:53.630Z,8.13
2022-08-19T10:06:02.345Z,7.50
2022-08-19T10:10:17.185Z,6.43
2022-08-19T10:12:21.474Z,7.57
2022-08-19T10:16:30.330Z,7.30
2022-08-19T10:18:35.247Z,8.20
2022-08-19T10:20:38.200Z,7.43
2022-08-19T10:22:42.273Z,6.85
2022-08-19T10:24:45.064Z,8.18
2022-08-19T10:26:55.835Z,8.82
2022-08-19T10:29:02.264Z,7.30
2022-08-19T10:31:07.312Z,6.43
2022-08-19T10:33:11.302Z,7.07
2022-08-19T10:35:16.304Z,6.13
2022-08-19T10:37:31.282Z,8.60
2022-08-19T10:39:42.394Z,8.98
2022-08-19T10:41:46.394Z,8.90
2022-08-19T10:43:49.337Z,9.05
2022-08-19T10:45:58.058Z,9.88
2022-08-19T10:48:01.091Z,7.97
2022-08-19T10:50:28.512Z,8.57
2022-08-19T10:52:39.036Z,7.13
2022-08-19T10:54:56.017Z,8.23
2022-08-19T10:56:58.881Z,9.85
2022-08-19T10:59:04.170Z,7.47
2022-08-19T11:01:08.371Z,7.05
2022-08-19T11:05:15.650Z,7.35
2022-08-19T11:07:18.528Z,8.15
2022-08-19T11:09:30.524Z,7.72
2022-08-19T11:11:41.061Z,8.70
2022-08-19T11:13:45.364Z,6.65
2022-08-19T11:17:55.408Z,7.18
2022-08-19T11:19:58.363Z,7.07
2022-08-19T11:22:02.812Z,6.25
2022-08-19T11:24:09.801Z,6.68
2022-08-19T11:26:13.448Z,7.28
2022-08-19T11:28:16.306Z,6.28
2022-08-19T11:30:19.160Z,6.20
2022-08-19T11:32:22.105Z,5.20
2022-08-19T11:34:29.136Z,5.22
2022-08-19T11:36:33.331Z,5.50
2022-08-19T11:40:39.625Z,7.20
2022-08-19T11:42:56.389Z,6.78
2022-08-19T11:44:59.451Z,5.60
2022-08-19T11:47:09.308Z,5.47
2022-08-19T11:49:14.141Z,6.50
2022-08-19T11:51:22.432Z,6.35
2022-08-19T11:53:25.942Z,5.28
2022-08-19T11:55:28.848Z,6.20
2022-08-19T11:57:31.757Z,5.10
2022-08-19T11:59:34.625Z,6.25
2022-08-19T12:01:37.490Z,5.05
2022-08-19T12:03:41.196Z,5.35
2022-08-19T12:05:44.372Z,4.63
2022-08-19T12:07:48.597Z,5.53
2022-08-19T12:11:54.797Z,4.68
2022-08-19T12:13:58.068Z,5.53
2022-08-19T12:16:00.985Z,4.50
2022-08-19T12:18:04.118Z,5.18
2022-08-19T12:20:09.734Z,4.78
2022-08-19T12:22:13.220Z,4.25
2022-08-19T12:24:21.438Z,4.10
2022-08-19T12:26:24.668Z,4.75
2022-08-19T12:28:28.003Z,4.43
2022-08-19T12:30:31.486Z,4.57
2022-08-19T12:32:34.858Z,4.35
2022-08-19T12:34:38.149Z,3.83
2022-08-19T12:36:41.073Z,3.80
2022-08-19T12:38:44.948Z,4.00
2022-08-19T12:40:50.545Z,4.13
2022-08-19T12:42:53.439Z,4.10
2022-08-19T12:44:56.421Z,4.43
2022-08-19T12:47:00.738Z,3.72
2022-08-19T12:49:09.138Z,3.75
2022-08-19T12:51:27.881Z,3.40
2022-08-19T12:53:31.053Z,3.97
2022-08-19T12:55:33.970Z,3.65
2022-08-19T12:57:38.568Z,3.50
2022-08-19T12:59:42.281Z,3.78
2022-08-19T13:01:45.492Z,3.83
2022-08-19T13:03:49.098Z,3.88
2022-08-19T13:05:53.933Z,4.10
2022-08-19T13:07:58.239Z,4.43
2022-08-19T13:10:01.348Z,4.45
2022-08-19T13:12:08.101Z,4.85
2022-08-19T13:14:13.021Z,5.13
2022-08-19T13:16:16.961Z,4.80
2022-08-19T13:18:19.870Z,4.80
2022-08-19T13:20:23.537Z,5.00
2022-08-19T13:22:26.438Z,4.88
2022-08-19T13:24:33.894Z,5.18
2022-08-19T13:26:36.855Z,5.15
2022-08-19T13:29:02.941Z,5.00
2022-08-19T13:31:24.967Z,5.30
2022-08-19T13:33:28.227Z,4.70
2022-08-19T13:35:31.081Z,4.63
2022-08-19T13:37:43.001Z,4.40
2022-08-19T13:39:46.239Z,4.63
2022-08-19T13:41:49.571Z,4.40
2022-08-19T13:43:52.530Z,4.78
2022-08-19T13:45:57.718Z,4.43
2022-08-19T13:48:07.336Z,5.03
2022-08-19T13:50:12.627Z,4.07
2022-08-19T13:52:15.492Z,4.88
2022-08-19T13:54:18.558Z,4.30
2022-08-19T13:56:25.861Z,4.55
2022-08-19T13:58:29.257Z,3.88
2022-08-19T14:00:34.711Z,4.10
2022-08-19T14:02:38.538Z,3.53
2022-08-19T14:04:42.791Z,3.05
2022-08-19T14:08:48.796Z,3.75
2022-08-19T14:10:51.852Z,4.18
2022-08-19T14:12:56.624Z,4.45
2022-08-19T14:14:59.644Z,4.25
2022-08-19T14:17:02.606Z,3.97
2022-08-19T14:19:05.435Z,3.70
2022-08-19T14:21:15.751Z,3.70
2022-08-19T14:23:19.196Z,4.00
2022-08-19T14:25:24.178Z,2.92
2022-08-19T14:27:27.060Z,2.80
2022-08-19T14:29:30.217Z,3.80
2022-08-19T14:31:33.060Z,2.72
2022-08-19T14:33:36.005Z,4.10
2022-08-19T14:35:39.316Z,2.83
2022-08-19T14:37:46.049Z,3.17
2022-08-19T14:39:49.223Z,3.10
2022-08-19T14:41:52.102Z,3.10
2022-08-19T14:43:56.017Z,2.97
2022-08-19T14:45:58.923Z,2.80
2022-08-19T14:48:03.878Z,3.00
2022-08-19T14:50:08.355Z,3.17
2022-08-19T14:52:13.686Z,3.40
2022-08-19T14:54:17.865Z,3.08
2022-08-19T14:56:23.551Z,3.13
2022-08-19T14:58:29.583Z,3.65
2022-08-19T15:00:33.049Z,3.22
2022-08-19T15:02:39.788Z,2.70
2022-08-19T15:04:42.724Z,2.95
2022-08-19T15:06:45.630Z,2.50
2022-08-19T15:08:48.590Z,2.97
2022-08-19T15:10:53.377Z,2.72
2022-08-19T15:12:56.434Z,3.10
2022-08-19T15:14:59.478Z,2.73
2022-08-19T15:17:04.125Z,3.50
2022-08-19T15:19:07.095Z,3.30
2022-08-19T15:21:10.182Z,2.95
2022-08-19T15:23:13.222Z,3.05
2022-08-19T15:25:19.337Z,2.88
2022-08-19T15:27:23.709Z,3.72
2022-08-19T15:29:26.570Z,3.13
2022-08-19T15:31:30.001Z,3.72
2022-08-19T15:33:36.061Z,3.28
2022-08-19T15:35:41.034Z,3.83
2022-08-19T15:37:44.510Z,3.50
2022-08-19T15:39:47.389Z,3.20
2022-08-19T15:41:50.312Z,3.55
2022-08-19T15:43:56.727Z,3.38
2022-08-19T15:45:59.596Z,3.53
2022-08-19T15:48:04.176Z,3.00
2022-08-19T15:50:10.753Z,3.13
2022-08-19T15:52:13.874Z,3.40
2022-08-19T15:54:21.462Z,3.58
2022-08-19T15:56:27.183Z,3.08
2022-08-19T15:58:47.795Z,3.05
2022-08-19T16:01:12.677Z,3.17
2022-08-19T16:03:33.929Z,2.90
2022-08-19T16:06:01.742Z,3.13
2022-08-19T16:08:04.712Z,3.10
2022-08-19T16:10:26.397Z,2.85
2022-08-19T16:12:30.905Z,3.55
2022-08-19T16:14:35.667Z,3.38
2022-08-19T16:16:39.848Z,3.90
2022-08-19T16:20:46.572Z,3.40
2022-08-19T16:22:49.862Z,3.92
2022-08-19T16:24:52.768Z,3.50
2022-08-19T16:26:56.835Z,3.53
2022-08-19T16:31:02.823Z,3.03
2022-08-19T16:33:08.020Z,3.80
2022-08-19T16:35:11.149Z,3.58
2022-08-19T16:37:15.209Z,3.85
2022-08-19T16:39:19.085Z,4.15
2022-08-19T16:41:22.884Z,3.95
2022-08-19T16:43:26.567Z,3.90
2022-08-19T16:45:29.668Z,3.63
2022-08-19T16:47:32.491Z,3.20
2022-08-19T16:49:53.267Z,4.30
2022-08-19T16:51:58.087Z,3.33
2022-08-19T16:54:01.832Z,4.05
2022-08-19T16:56:05.578Z,3.58
2022-08-19T16:58:08.634Z,3.65
2022-08-19T17:00:13.920Z,3.95
2022-08-19T17:02:17.142Z,4.47
2022-08-19T17:04:20.483Z,4.47
2022-08-19T17:06:28.228Z,3.78
2022-08-19T17:08:34.193Z,5.00
2022-08-19T17:10:38.213Z,4.07
2022-08-19T17:12:41.409Z,4.72
2022-08-19T17:14:46.054Z,5.03
2022-08-19T17:16:49.191Z,4.90
2022-08-19T17:18:52.839Z,4.88
2022-08-19T17:20:56.908Z,4.75
2022-08-19T17:25:04.795Z,4.97
2022-08-19T17:27:07.788Z,4.32
2022-08-19T17:29:10.808Z,3.58
2022-08-19T17:31:13.838Z,3.85
2022-08-19T17:33:16.807Z,4.03
2022-08-19T17:35:24.046Z,5.32
2022-08-19T17:37:28.076Z,4.22
2022-08-19T17:39:32.356Z,5.75
2022-08-19T17:41:42.836Z,5.03
2022-08-19T17:43:45.919Z,5.07
2022-08-19T17:45:49.276Z,5.60
2022-08-19T17:47:55.548Z,4.75
2022-08-19T17:49:59.320Z,5.30
2022-08-19T17:52:02.191Z,4.25
2022-08-19T17:54:05.449Z,4.90
2022-08-19T17:56:10.557Z,5.30
2022-08-19T17:58:13.393Z,4.93
2022-08-19T18:00:18.996Z,4.85
2022-08-19T18:02:22.464Z,4.75
2022-08-19T18:04:26.545Z,5.30
2022-08-19T18:06:29.549Z,5.20
2022-08-19T18:08:32.801Z,6.00
2022-08-19T18:10:37.808Z,5.80
2022-08-19T18:12:44.183Z,6.07
2022-08-19T18:14:47.998Z,5.10
2022-08-19T18:16:51.216Z,5.28
2022-08-19T18:18:54.782Z,5.73
2022-08-19T18:20:57.985Z,5.88
2022-08-19T18:23:44.755Z,5.60
2022-08-19T18:25:27.371Z,5.47
2022-08-19T18:27:30.334Z,6.10
2022-08-19T18:29:37.374Z,6.25
2022-08-19T18:31:40.399Z,5.68
2022-08-19T18:33:44.230Z,5.90
2022-08-19T18:35:52.029Z,6.20
2022-08-19T18:37:55.084Z,5.57
2022-08-19T18:40:15.475Z,5.88
2022-08-19T18:42:36.778Z,5.15
2022-08-19T18:44:59.975Z,5.60
2022-08-19T18:47:20.831Z,6.18
2022-08-19T18:49:26.984Z,6.75
2022-08-19T18:51:31.572Z,6.03
2022-08-19T18:53:37.728Z,6.03
2022-08-19T18:55:40.609Z,5.95
2022-08-19T18:57:43.749Z,5.03
2022-08-19T18:59:48.308Z,5.97
2022-08-19T19:01:52.877Z,6.57
2022-08-19T19:03:56.768Z,5.95
2022-08-19T19:05:59.636Z,5.15
2022-08-19T19:08:02.531Z,6.20
2022-08-19T19:10:05.948Z,5.25
2022-08-19T19:12:11.355Z,5.82
2022-08-19T19:14:32.853Z,5.97
2022-08-19T19:18:44.550Z,5.90
2022-08-19T19:20:47.471Z,5.78
2022-08-19T19:22:50.357Z,5.55
2022-08-19T19:24:59.689Z,5.35
2022-08-19T19:27:06.299Z,5.10
2022-08-19T19:29:09.361Z,6.32
2022-08-19T19:31:14.256Z,5.38
2022-08-19T19:33:18.630Z,5.50
2022-08-19T19:35:21.627Z,5.45
2022-08-19T19:37:24.487Z,5.38
2022-08-19T19:39:44.837Z,5.43
2022-08-19T19:41:49.966Z,5.90
2022-08-19T19:44:09.838Z,5.25
2022-08-19T19:46:17.857Z,6.22
2022-08-19T19:48:22.607Z,5.30
2022-08-19T19:50:25.516Z,5.57
2022-08-19T19:52:28.372Z,5.35
2022-08-19T19:54:31.937Z,6.35
2022-08-19T19:56:35.108Z,6.97
2022-08-19T19:58:38.132Z,5.95
2022-08-19T20:00:41.010Z,6.18
2022-08-19T20:02:47.874Z,6.40
2022-08-19T20:04:57.086Z,6.63
2022-08-19T20:06:59.880Z,5.65
2022-08-19T20:09:08.063Z,6.15
2022-08-19T20:11:11.023Z,8.07
2022-08-19T20:13:15.647Z,6.63
2022-08-19T20:15:19.700Z,7.35
2022-08-19T20:17:22.773Z,7.35
2022-08-19T20:19:28.143Z,6.78
2022-08-19T20:21:33.543Z,6.50
2022-08-19T20:23:36.820Z,6.82
2022-08-19T20:25:42.079Z,8.15
2022-08-19T20:27:45.345Z,7.47
2022-08-19T20:29:48.443Z,7.25
2022-08-19T20:31:57.565Z,7.13
2022-08-19T20:34:02.898Z,7.72
2022-08-19T20:36:08.688Z,7.22
2022-08-19T20:38:13.399Z,7.32
2022-08-19T20:40:21.701Z,6.90
2022-08-19T20:42:25.257Z,6.97
2022-08-19T20:44:28.268Z,6.70
2022-08-19T20:46:32.190Z,7.50
2022-08-19T20:48:38.006Z,7.30
2022-08-19T20:50:41.010Z,7.70
2022-08-19T20:52:44.989Z,8.15
2022-08-19T20:54:57.973Z,7.10
2022-08-19T20:57:03.496Z,7.22
2022-08-19T20:59:10.304Z,7.10
2022-08-19T21:01:13.336Z,7.63
2022-08-19T21:03:20.737Z,7.80
2022-08-19T21:05:28.454Z,8.15
2022-08-19T21:07:39.009Z,7.00
2022-08-19T21:09:42.637Z,7.07
2022-08-19T21:11:47.195Z,7.63
2022-08-19T21:13:50.199Z,6.50
2022-08-19T21:15:53.360Z,6.88
2022-08-19T21:17:56.686Z,6.85
2022-08-19T21:19:59.876Z,7.22
2022-08-19T21:22:03.495Z,7.55
2022-08-19T21:24:06.713Z,6.78
2022-08-19T21:26:10.243Z,7.45
2022-08-19T21:28:14.981Z,7.07
2022-08-19T21:30:37.843Z,6.82
2022-08-19T21:32:40.812Z,5.85
2022-08-19T21:34:44.034Z,6.20
2022-08-19T21:36:49.304Z,6.38
2022-08-19T21:38:52.333Z,6.15
2022-08-19T21:40:55.637Z,6.20
2022-08-19T21:42:58.650Z,6.13
2022-08-19T21:45:03.609Z,6.57
2022-08-19T21:47:06.909Z,5.40
2022-08-19T21:49:14.501Z,5.32
2022-08-19T21:51:17.359Z,5.35
2022-08-19T21:53:23.025Z,5.30
2022-08-19T21:55:26.239Z,5.38
2022-08-19T21:57:29.152Z,5.68
2022-08-19T21:59:32.012Z,5.43
2022-08-19T22:01:36.273Z,5.47
2022-08-19T22:05:43.572Z,5.97
2022-08-19T22:07:47.369Z,5.13
2022-08-19T22:09:51.953Z,5.15
2022-08-19T22:11:54.785Z,5.65
2022-08-19T22:13:57.671Z,5.05
2022-08-19T22:16:00.558Z,5.32
2022-08-19T22:18:04.876Z,5.47
2022-08-19T22:22:12.139Z,5.80
2022-08-19T22:24:15.001Z,5.43
2022-08-19T22:26:18.473Z,5.97
2022-08-19T22:28:28.089Z,5.70
2022-08-19T22:30:33.284Z,6.32
2022-08-19T22:32:37.440Z,5.90
2022-08-19T22:34:41.724Z,5.43
2022-08-19T22:38:47.212Z,6.15
2022-08-19T22:40:51.769Z,5.95
2022-08-19T22:43:00.021Z,6.35
2022-08-19T22:45:02.826Z,6.00
2022-08-19T22:47:06.131Z,5.35
2022-08-19T22:49:08.967Z,6.25
2022-08-19T22:51:31.065Z,5.50
2022-08-19T22:53:34.362Z,5.30
2022-08-19T22:55:39.063Z,5.10
2022-08-19T22:57:41.915Z,5.28
2022-08-19T22:59:44.723Z,4.97
2022-08-19T23:01:47.557Z,5.47
2022-08-19T23:03:50.376Z,5.05
2022-08-19T23:05:53.381Z,5.20
2022-08-19T23:08:00.385Z,5.40
2022-08-19T23:10:04.154Z,5.72
2022-08-19T23:12:07.946Z,4.97
2022-08-19T23:14:12.499Z,4.60
2022-08-19T23:16:15.467Z,5.22
2022-08-19T23:18:20.028Z,4.43
2022-08-19T23:20:26.905Z,4.57
2022-08-19T23:22:30.552Z,5.00
2022-08-19T23:24:34.731Z,5.15
2022-08-19T23:26:38.230Z,4.70
2022-08-19T23:28:58.761Z,4.72
2022-08-19T23:31:00.617Z,4.43
2022-08-19T23:33:12.699Z,4.93
2022-08-19T23:35:15.721Z,4.30
2022-08-19T23:37:18.587Z,5.43
2022-08-19T23:39:21.383Z,4.97
2022-08-19T23:41:27.107Z,4.55
2022-08-19T23:43:30.974Z,4.47
2022-08-19T23:45:39.111Z,5.25
2022-08-19T23:47:42.505Z,4.63
2022-08-19T23:49:45.314Z,5.10
2022-08-19T23:51:48.261Z,4.57
2022-08-19T23:53:51.242Z,4.32
2022-08-19T23:55:54.335Z,4.88
2022-08-19T23:57:59.085Z,4.45
